Time;durP1;ratioP1;P1;durP2;ratioP2;P2;SDS_P1;SDS_P2;PMS_P1;PMS_P2;Temp;Humidity;BMP_temperature;BMP_pressure;BME280_temperature;BME280_humidity;BME280_pressure;Samples;Min_cycle;Max_cycle;Signal;HPM_P1;HPM_P2
2024/01/11 00:01:48;;;;;;;36.10;17.77;;;;;;;-3.61;70.31;103077.38;5093445;28;20027;-60
2024/01/11 00:04:14;;;;;;;31.63;17.13;;;;;;;-3.65;70.56;103078.97;5093233;28;20028;-60
2024/01/11 00:06:43;;;;;;;35.43;16.70;;;;;;;-3.72;70.37;103064.91;5091678;28;20028;-60
2024/01/11 00:09:09;;;;;;;32.83;16.77;;;;;;;-3.71;70.30;103077.06;5074485;28;20403;-60
2024/01/11 00:11:34;;;;;;;32.77;17.90;;;;;;;-3.72;70.26;103074.44;5092066;28;20028;-60
2024/01/11 00:13:59;;;;;;;31.93;17.00;;;;;;;-3.73;70.95;103077.88;5092727;28;20119;-60
2024/01/11 00:16:26;;;;;;;33.07;16.67;;;;;;;-3.73;70.76;103072.69;5092306;28;20104;-60
2024/01/11 00:18:51;;;;;;;33.43;16.67;;;;;;;-3.75;70.88;103071.75;5091463;28;20033;-60
2024/01/11 00:21:17;;;;;;;33.33;17.53;;;;;;;-3.76;71.31;103076.06;5091366;28;20386;-60
2024/01/11 00:23:42;;;;;;;33.23;17.80;;;;;;;-3.79;70.94;103078.56;5091705;28;20035;-60
2024/01/11 00:26:08;;;;;;;32.33;17.87;;;;;;;-3.78;70.85;103082.03;5092348;28;20063;-60
2024/01/11 00:28:35;;;;;;;34.57;16.87;;;;;;;-3.81;70.82;103080.22;5092769;28;20032;-60
2024/01/11 00:31:01;;;;;;;33.93;17.83;;;;;;;-4.02;71.29;103037.94;5091809;28;20024;-60
2024/01/11 00:33:26;;;;;;;34.07;16.90;;;;;;;-3.84;71.26;103079.25;5090949;28;20073;-60
2024/01/11 00:35:51;;;;;;;35.23;17.70;;;;;;;-3.92;71.88;103071.19;5091018;28;20089;-59
2024/01/11 00:38:17;;;;;;;27.73;16.77;;;;;;;-3.92;72.14;103074.66;5092128;28;20157;-60
2024/01/11 00:40:45;;;;;;;30.87;17.53;;;;;;;-3.96;72.31;103077.13;5091987;28;20040;-60
2024/01/11 00:43:11;;;;;;;37.63;18.30;;;;;;;-4.04;72.08;103063.88;5091410;28;20024;-60
2024/01/11 00:45:37;;;;;;;33.87;17.93;;;;;;;-3.98;72.09;103076.19;5074097;28;20035;-60
2024/01/11 00:48:03;;;;;;;33.13;17.40;;;;;;;-4.04;72.25;103063.88;5092312;28;20023;-60
2024/01/11 00:50:28;;;;;;;33.13;15.83;;;;;;;-3.97;72.21;103072.75;5092121;28;20145;-60
2024/01/11 00:52:54;;;;;;;30.40;17.60;;;;;;;-3.96;72.42;103070.22;5092196;28;20024;-60
2024/01/11 00:55:19;;;;;;;31.63;16.83;;;;;;;-3.99;72.15;103069.22;5091367;28;20036;-60
2024/01/11 00:57:44;;;;;;;32.37;17.30;;;;;;;-4.01;72.08;103076.09;5092039;28;20110;-60
2024/01/11 01:00:13;;;;;;;33.27;16.77;;;;;;;-3.99;72.05;103080.50;5091784;28;20028;-60
2024/01/11 01:02:39;;;;;;;29.77;17.70;;;;;;;-4.06;72.61;103060.31;5091907;28;20032;-60
2024/01/11 01:05:05;;;;;;;31.47;16.53;;;;;;;-4.02;72.61;103072.59;5092062;28;20035;-60
2024/01/11 01:07:30;;;;;;;34.90;17.73;;;;;;;-4.03;71.94;103078.66;5088755;28;20059;-60
2024/01/11 01:09:55;;;;;;;35.27;17.37;;;;;;;-4.05;71.87;103076.84;5090947;28;20035;-60
2024/01/11 01:12:21;;;;;;;31.87;17.10;;;;;;;-4.07;72.86;103079.38;5091108;28;20016;-60
2024/01/11 01:14:48;;;;;;;33.63;17.53;;;;;;;-4.05;73.08;103079.44;5090947;28;20027;-60
2024/01/11 01:17:14;;;;;;;36.97;16.73;;;;;;;-4.12;72.50;103078.31;5088485;28;20099;-60
2024/01/11 01:19:39;;;;;;;35.60;17.47;;;;;;;-4.12;72.29;103076.63;5091778;28;20476;-60
2024/01/11 01:22:05;;;;;;;28.87;16.50;;;;;;;-4.08;72.71;103085.41;5091296;28;20554;-60
2024/01/11 01:24:31;;;;;;;34.43;17.60;;;;;;;-4.11;73.01;103093.09;5091595;28;20024;-60
2024/01/11 01:26:57;;;;;;;32.20;18.27;;;;;;;-4.08;72.89;103094.91;5091013;28;20028;-60
2024/01/11 01:29:22;;;;;;;33.73;16.77;;;;;;;-4.17;72.88;103079.91;5090865;28;20380;-60
2024/01/11 01:31:48;;;;;;;30.73;17.00;;;;;;;-4.15;73.21;103086.91;5088837;28;20573;-60
2024/01/11 01:34:14;;;;;;;34.20;17.70;;;;;;;-4.14;73.17;103099.06;5090500;28;20031;-60
2024/01/11 01:36:42;;;;;;;40.60;17.57;;;;;;;-4.16;73.48;103095.53;5090158;28;20028;-60
2024/01/11 01:39:08;;;;;;;33.70;18.00;;;;;;;-4.31;73.55;103083.75;5088708;28;20036;-60
2024/01/11 01:41:33;;;;;;;32.47;16.93;;;;;;;-4.22;73.87;103108.31;5090750;28;20032;-60
2024/01/11 01:43:59;;;;;;;31.27;17.13;;;;;;;-4.21;74.22;103107.47;5088926;28;20471;-60
2024/01/11 01:46:28;;;;;;;34.97;17.20;;;;;;;-4.23;74.08;103116.94;5090242;28;21287;-60
2024/01/11 01:48:55;;;;;;;37.77;17.23;;;;;;;-4.22;74.27;103121.28;5088590;28;20024;-60
2024/01/11 01:51:22;;;;;;;34.40;17.37;;;;;;;-4.32;74.01;103115.72;5090544;28;20032;-60
2024/01/11 01:53:49;;;;;;;31.30;17.50;;;;;;;-4.25;74.25;103128.97;5091076;28;20027;-60
2024/01/11 01:56:15;;;;;;;33.80;17.33;;;;;;;-4.36;73.84;103109.53;5089835;28;20118;-60
2024/01/11 01:58:42;;;;;;;36.93;17.97;;;;;;;-4.31;74.31;103130.50;5089432;28;20024;-60
2024/01/11 02:01:08;;;;;;;33.80;18.53;;;;;;;-4.45;74.16;103117.00;5089009;28;20062;-60
2024/01/11 02:03:36;;;;;;;39.37;18.27;;;;;;;-4.36;74.02;103135.50;5088966;28;20115;-60
2024/01/11 02:06:04;;;;;;;34.30;16.57;;;;;;;-4.35;74.25;103139.91;5089339;28;20031;-60
2024/01/11 02:08:31;;;;;;;32.97;16.80;;;;;;;-4.40;74.05;103125.84;5090546;28;20031;-60
2024/01/11 02:10:59;;;;;;;31.80;17.60;;;;;;;-4.32;74.06;103128.69;5089561;28;20028;-60
2024/01/11 02:13:25;;;;;;;30.47;16.77;;;;;;;-4.41;74.35;103116.28;5087360;28;20035;-60
2024/01/11 02:15:50;;;;;;;31.13;16.30;;;;;;;-4.28;73.79;103133.19;5090419;28;20073;-60
2024/01/11 02:18:16;;;;;;;33.53;18.00;;;;;;;-4.29;73.81;103119.34;5089762;28;20053;-60
2024/01/11 02:20:42;;;;;;;34.97;18.83;;;;;;;-4.31;73.80;103113.19;5088717;28;20376;-60
2024/01/11 02:23:14;;;;;;;37.97;17.57;;;;;;;-4.29;74.22;103108.03;5090606;28;20032;-60
2024/01/11 02:25:40;;;;;;;32.60;16.37;;;;;;;-4.29;74.12;103108.94;5090133;28;20032;-60
2024/01/11 02:28:05;;;;;;;33.63;17.13;;;;;;;-4.32;73.81;103108.84;5090044;28;20028;-60
2024/01/11 02:30:31;;;;;;;31.47;18.47;;;;;;;-4.35;74.37;103111.31;5089985;28;20618;-60
2024/01/11 02:32:57;;;;;;;31.80;17.20;;;;;;;-4.46;74.32;103103.16;5089049;28;20031;-60
2024/01/11 02:35:23;;;;;;;32.73;17.07;;;;;;;-4.36;74.09;103115.59;5090633;28;20107;-60
2024/01/11 02:37:49;;;;;;;33.97;17.40;;;;;;;-4.38;74.54;103122.50;5090532;28;20062;-60
2024/01/11 02:40:15;;;;;;;30.87;17.37;;;;;;;-4.51;74.40;103116.78;5089362;28;20507;-60
2024/01/11 02:42:40;;;;;;;30.83;18.07;;;;;;;-4.43;73.91;103126.63;5089566;28;20023;-60
2024/01/11 02:45:06;;;;;;;35.97;17.17;;;;;;;-4.44;74.09;103129.16;5089898;28;20024;-60
2024/01/11 02:47:32;;;;;;;33.40;16.90;;;;;;;-4.45;74.51;103124.81;5089714;28;20032;-60
2024/01/11 02:49:57;;;;;;;33.40;17.60;;;;;;;-4.52;74.66;103120.22;5088992;28;20105;-60
2024/01/11 02:52:23;;;;;;;33.70;17.67;;;;;;;-4.65;74.61;103101.59;5087028;28;20497;-60
2024/01/11 02:54:49;;;;;;;32.37;17.47;;;;;;;-4.58;74.60;103119.16;5089222;28;20035;-60
2024/01/11 02:57:19;;;;;;;33.60;16.23;;;;;;;-4.65;74.42;103106.78;5093936;28;20089;-60
2024/01/11 02:59:44;;;;;;;39.97;17.67;;;;;;;-4.58;75.27;103129.56;5093853;28;20062;-60
2024/01/11 03:02:10;;;;;;;32.10;18.17;;;;;;;-4.59;75.31;103121.69;5093843;28;20043;-60
2024/01/11 03:04:35;;;;;;;30.67;17.17;;;;;;;-4.60;75.25;103119.94;5102489;28;20498;-60
2024/01/11 03:07:01;;;;;;;36.40;16.70;;;;;;;-4.63;75.15;103123.31;5093409;28;20087;-60
2024/01/11 03:09:29;;;;;;;33.33;17.27;;;;;;;-4.74;75.28;103106.44;5092516;28;20024;-60
2024/01/11 03:11:56;;;;;;;33.53;15.93;;;;;;;-4.68;74.81;103118.78;5093483;28;20386;-60
2024/01/11 03:14:25;;;;;;;29.93;16.33;;;;;;;-4.66;74.63;103123.19;5093466;28;20024;-60
2024/01/11 03:16:50;;;;;;;35.93;18.07;;;;;;;-4.66;74.90;103130.97;5092091;28;20047;-60
2024/01/11 03:19:15;;;;;;;28.67;17.10;;;;;;;-4.71;74.94;103126.44;5099679;28;20017;-60
2024/01/11 03:21:43;;;;;;;37.87;17.27;;;;;;;-4.69;75.24;103130.88;5092706;28;20016;-60
2024/01/11 03:24:08;;;;;;;33.33;16.93;;;;;;;-4.75;75.22;103130.66;5092810;28;20055;-60
2024/01/11 03:26:34;;;;;;;39.13;18.17;;;;;;;-4.86;75.10;103113.78;5091917;28;20051;-60
2024/01/11 03:28:59;;;;;;;40.47;18.07;;;;;;;-4.77;75.67;103126.22;5092295;28;20436;-60
2024/01/11 03:31:25;;;;;;;30.67;18.27;;;;;;;-4.76;75.74;103126.31;5093291;28;20513;-60
2024/01/11 03:33:50;;;;;;;35.57;17.13;;;;;;;-4.98;75.25;103090.00;5093688;28;20031;-60
2024/01/11 03:36:18;;;;;;;33.20;17.37;;;;;;;-4.90;75.05;103102.44;5093404;28;20028;-60
2024/01/11 03:38:43;;;;;;;32.30;17.73;;;;;;;-4.85;75.00;103111.28;5093598;28;20051;-60
2024/01/11 03:41:12;;;;;;;38.30;17.47;;;;;;;-4.82;75.17;103128.66;5091661;28;20212;-60
2024/01/11 03:43:37;;;;;;;38.20;17.87;;;;;;;-4.83;75.56;103127.75;5092230;28;20028;-60
2024/01/11 03:46:03;;;;;;;38.17;17.53;;;;;;;-4.85;74.91;103126.84;5092525;28;20602;-60
2024/01/11 03:48:29;;;;;;;34.03;17.00;;;;;;;-4.89;75.03;103116.28;5093373;28;20028;-60
2024/01/11 03:50:54;;;;;;;31.40;18.37;;;;;;;-4.86;75.20;103118.97;5093004;28;20031;-60
2024/01/11 03:53:20;;;;;;;34.40;17.70;;;;;;;-4.93;75.46;103101.44;5094296;28;20024;-60
2024/01/11 03:55:45;;;;;;;30.90;17.53;;;;;;;-4.84;75.40;103123.41;5091220;28;20020;-60
2024/01/11 03:58:11;;;;;;;34.93;18.60;;;;;;;-4.85;75.51;103119.06;5092084;28;20096;-60
2024/01/11 04:00:36;;;;;;;31.90;17.40;;;;;;;-4.95;75.30;103108.28;5091215;28;20028;-60
2024/01/11 04:03:02;;;;;;;36.43;17.47;;;;;;;-4.95;75.72;103116.94;5092702;28;20478;-60
2024/01/11 04:05:27;;;;;;;32.77;18.20;;;;;;;-4.90;75.77;103138.75;5091410;28;20016;-60
2024/01/11 04:07:53;;;;;;;35.90;17.40;;;;;;;-4.92;75.98;103129.13;5092722;28;20105;-60
2024/01/11 04:10:18;;;;;;;39.07;19.07;;;;;;;-4.95;75.93;103122.13;5091960;28;20056;-60
2024/01/11 04:12:44;;;;;;;39.37;17.70;;;;;;;-4.98;75.82;103124.59;5093591;28;20375;-60
2024/01/11 04:15:12;;;;;;;32.90;17.57;;;;;;;-5.09;75.96;103107.75;5093981;28;20149;-60
2024/01/11 04:17:39;;;;;;;35.10;16.83;;;;;;;-4.99;76.21;103134.94;5091073;28;20135;-60
2024/01/11 04:20:05;;;;;;;40.77;16.47;;;;;;;-4.98;76.01;103128.91;5092190;28;20027;-60
2024/01/11 04:22:31;;;;;;;37.70;18.70;;;;;;;-4.97;75.81;103144.56;5092564;28;20035;-60
2024/01/11 04:24:58;;;;;;;34.80;17.60;;;;;;;-4.96;76.24;103161.88;5092473;28;20467;-60
2024/01/11 04:27:24;;;;;;;44.83;18.40;;;;;;;-4.97;76.38;103165.31;5092758;28;20036;-60
2024/01/11 04:29:49;;;;;;;34.07;16.80;;;;;;;-4.97;76.50;103160.13;5092251;28;20031;-60
2024/01/11 04:32:14;;;;;;;32.60;17.67;;;;;;;-4.95;76.94;103160.16;5091107;28;20433;-60
2024/01/11 04:34:40;;;;;;;31.43;18.00;;;;;;;-5.03;76.83;103145.19;5092757;28;20027;-60
2024/01/11 04:37:06;;;;;;;37.70;18.30;;;;;;;-4.91;76.82;103162.94;5092005;28;20020;-60
2024/01/11 04:39:32;;;;;;;35.47;18.10;;;;;;;-4.88;76.69;103170.84;5090926;28;20032;-60
2024/01/11 04:41:57;;;;;;;41.37;18.03;;;;;;;-4.90;75.88;103171.59;5091278;28;20028;-60
2024/01/11 04:44:23;;;;;;;31.17;17.63;;;;;;;-4.95;75.99;103165.34;5091891;28;20034;-60
2024/01/11 04:46:48;;;;;;;37.37;18.57;;;;;;;-4.94;76.66;103173.22;5090278;28;20112;-60
2024/01/11 04:49:13;;;;;;;34.87;18.50;;;;;;;-4.98;76.44;103175.63;5091762;28;20081;-60
2024/01/11 04:51:39;;;;;;;40.73;18.17;;;;;;;-4.99;77.14;103168.66;5092118;28;20467;-60
2024/01/11 04:54:04;;;;;;;32.60;17.47;;;;;;;-5.01;76.40;103158.22;5091955;28;20081;-60
2024/01/11 04:56:30;;;;;;;32.33;17.70;;;;;;;-4.99;76.30;103160.88;5091784;28;20091;-60
2024/01/11 04:58:55;;;;;;;29.60;16.10;;;;;;;-5.02;77.23;103161.66;5091404;28;20028;-60
2024/01/11 05:01:21;;;;;;;32.20;17.33;;;;;;;-5.07;76.72;103148.47;5092266;28;20016;-60
2024/01/11 05:03:47;;;;;;;34.00;15.30;;;;;;;-5.00;76.24;103167.75;5091630;28;20459;-60
2024/01/11 05:06:20;;;;;;;32.10;16.97;;;;;;;-5.04;76.28;103166.75;5091548;28;20109;-60
2024/01/11 05:08:51;;;;;;;35.60;16.53;;;;;;;-5.11;76.46;103159.59;5091656;28;20056;-60
2024/01/11 05:11:17;;;;;;;37.53;17.70;;;;;;;-5.06;76.57;103168.44;5088293;28;20030;-60
2024/01/11 05:13:42;;;;;;;29.37;16.70;;;;;;;-5.08;76.41;103170.06;5091044;28;20429;-60
2024/01/11 05:16:22;;;;;;;32.30;17.73;;;;;;;-5.10;76.40;103176.03;5091546;28;20020;-60
2024/01/11 05:18:47;;;;;;;35.88;17.00;;;;;;;-5.12;76.06;103180.25;5089796;28;20027;-60
2024/01/11 05:21:13;;;;;;;28.50;16.20;;;;;;;-5.15;76.70;103178.41;5091866;28;20034;-60
2024/01/11 05:23:40;;;;;;;38.10;16.17;;;;;;;-5.22;76.43;103179.03;5091733;28;20023;-60
2024/01/11 05:26:06;;;;;;;31.70;16.07;;;;;;;-5.23;76.92;103182.44;5090468;28;20023;-60
2024/01/11 05:28:31;;;;;;;28.83;15.73;;;;;;;-5.26;76.76;103192.69;5091150;28;20032;-60
2024/01/11 05:30:56;;;;;;;30.57;16.23;;;;;;;-5.27;77.26;103181.41;5090025;28;20042;-60
2024/01/11 05:33:22;;;;;;;32.17;16.13;;;;;;;-5.38;77.28;103171.44;5090533;28;20051;-60
2024/01/11 05:35:47;;;;;;;34.73;17.60;;;;;;;-5.27;78.20;103199.56;5091269;28;20050;-60
2024/01/11 05:38:12;;;;;;;28.03;16.53;;;;;;;-5.25;77.33;103194.47;5089347;28;20024;-60
2024/01/11 05:40:38;;;;;;;27.17;16.43;;;;;;;-5.28;77.73;103200.41;5090633;28;20042;-60
2024/01/11 05:43:03;;;;;;;39.33;17.30;;;;;;;-5.36;78.15;103196.59;5090150;28;20094;-60
2024/01/11 05:45:29;;;;;;;51.17;17.53;;;;;;;-5.23;79.03;103212.69;5090710;28;20039;-60
2024/01/11 05:47:54;;;;;;;31.43;16.33;;;;;;;-5.14;78.81;103231.22;5090875;28;20474;-60
2024/01/11 05:50:19;;;;;;;28.23;16.03;;;;;;;-5.10;78.88;103226.19;5090998;28;20028;-60
2024/01/11 05:52:45;;;;;;;34.50;16.60;;;;;;;-5.06;79.59;103227.19;5089806;28;20095;-60
2024/01/11 05:55:10;;;;;;;34.13;17.80;;;;;;;-5.12;78.99;103201.00;5090534;28;20027;-60
2024/01/11 05:57:36;;;;;;;29.93;16.13;;;;;;;-5.03;78.60;103201.38;5091076;28;20024;-60
2024/01/11 06:00:01;;;;;;;35.23;17.07;;;;;;;-5.04;78.45;103207.38;5090778;28;20078;-60
2024/01/11 06:02:27;;;;;;;26.43;16.17;;;;;;;-5.07;78.56;103202.97;5090409;28;20037;-60
2024/01/11 06:04:54;;;;;;;31.73;15.57;;;;;;;-5.15;78.32;103206.94;5091101;28;20103;-60
2024/01/11 06:07:20;;;;;;;25.50;14.97;;;;;;;-5.18;77.71;103208.56;5090820;28;20110;-60
2024/01/11 06:09:45;;;;;;;32.23;17.33;;;;;;;-5.34;77.93;103194.09;5090434;28;20585;-60
2024/01/11 06:12:11;;;;;;;29.97;15.90;;;;;;;-5.26;78.37;103218.63;5090670;28;20517;-60
2024/01/11 06:14:36;;;;;;;25.03;14.70;;;;;;;-5.29;78.41;103223.69;5089092;28;20027;-60
2024/01/11 06:17:01;;;;;;;27.97;15.33;;;;;;;-5.32;77.88;103229.66;5089941;28;20122;-60
2024/01/11 06:19:27;;;;;;;34.13;16.90;;;;;;;-5.34;78.05;103245.97;5089253;28;20102;-60
2024/01/11 06:21:57;;;;;;;27.57;15.57;;;;;;;-5.39;78.15;103245.75;5090387;28;20016;-60
2024/01/11 06:24:22;;;;;;;;;;;;;;;-5.43;77.37;103241.28;5089943;28;20047;-60
2024/01/11 06:26:48;;;;;;;35.17;16.63;;;;;;;-5.46;78.21;103243.75;5090861;28;19954;-60
2024/01/11 06:29:13;;;;;;;26.13;14.43;;;;;;;-5.45;78.46;103234.25;5089321;28;20429;-60
2024/01/11 06:31:39;;;;;;;25.43;14.77;;;;;;;-5.45;78.04;103224.75;5090996;28;20027;-60
2024/01/11 06:34:04;;;;;;;26.73;15.37;;;;;;;-5.48;78.09;103232.41;5090282;28;20466;-60
2024/01/11 06:36:30;;;;;;;35.70;16.17;;;;;;;-5.49;78.59;103243.63;5090709;28;20114;-60
2024/01/11 06:38:55;;;;;;;23.13;14.63;;;;;;;-5.49;78.36;103244.50;5072777;28;20034;-60
2024/01/11 06:41:20;;;;;;;23.23;14.07;;;;;;;-5.52;78.55;103239.19;5090509;28;20052;-60
2024/01/11 06:43:46;;;;;;;25.80;14.87;;;;;;;-5.53;78.53;103232.25;5090271;28;20032;-60
2024/01/11 06:46:12;;;;;;;32.23;15.57;;;;;;;-5.53;78.58;103226.16;5090340;28;20043;-60
2024/01/11 06:48:40;;;;;;;29.10;15.13;;;;;;;-5.62;78.41;103221.47;5091346;28;20020;-60
2024/01/11 06:51:05;;;;;;;28.23;16.17;;;;;;;-5.61;79.13;103243.09;5082902;28;20047;-61
2024/01/11 06:53:30;;;;;;;25.03;15.90;;;;;;;-5.65;79.07;103236.88;5063457;28;20067;-60
2024/01/11 06:55:58;;;;;;;26.20;15.57;;;;;;;-5.59;79.20;103247.53;5088845;28;20042;-60
2024/01/11 06:58:24;;;;;;;26.90;16.53;;;;;;;-5.61;78.81;103246.56;5089459;28;20386;-60
2024/01/11 07:00:50;;;;;;;34.47;16.43;;;;;;;-5.66;79.03;103247.19;5090279;28;20020;-60
2024/01/11 07:03:19;;;;;;;29.10;14.90;;;;;;;-5.65;79.32;103259.34;5089872;28;20012;-60
2024/01/11 07:05:44;;;;;;;24.77;14.13;;;;;;;-5.70;78.68;103248.78;5090235;28;20016;-60
2024/01/11 07:08:10;;;;;;;31.47;15.87;;;;;;;-5.72;78.62;103256.47;5089393;28;20038;-60
2024/01/11 07:10:35;;;;;;;36.13;15.40;;;;;;;-5.72;78.94;103250.41;5090223;28;20024;-60
2024/01/11 07:13:00;;;;;;;27.00;15.07;;;;;;;-5.73;78.31;103259.03;5089957;28;20024;-59
2024/01/11 07:15:26;;;;;;;28.03;14.17;;;;;;;-5.80;78.83;103252.66;5090550;28;20027;-60
2024/01/11 07:17:53;;;;;;;29.27;15.50;;;;;;;-5.75;79.17;103274.50;5090555;28;20024;-60
2024/01/11 07:20:19;;;;;;;31.70;15.70;;;;;;;-5.76;78.65;103275.31;5090717;28;20118;-60
2024/01/11 07:22:46;;;;;;;29.67;15.27;;;;;;;-5.76;78.78;103277.03;5089660;28;20107;-60
2024/01/11 07:25:12;;;;;;;28.27;16.40;;;;;;;-5.78;79.02;103284.72;5090455;28;20035;-60
2024/01/11 07:27:39;;;;;;;27.87;14.93;;;;;;;-5.83;78.95;103264.63;5091206;28;20032;-60
2024/01/11 07:30:06;;;;;;;28.63;15.20;;;;;;;-5.82;79.52;103277.66;5091085;28;20020;-60
2024/01/11 07:32:31;;;;;;;31.07;17.40;;;;;;;-5.84;79.36;103270.63;5089733;28;20032;-60
2024/01/11 07:35:02;;;;;;;31.17;16.33;;;;;;;-5.83;79.69;103272.38;5090709;28;20046;-60
2024/01/11 07:37:28;;;;;;;35.40;17.20;;;;;;;-5.84;79.98;103279.28;5090286;28;20358;-60
2024/01/11 07:39:53;;;;;;;29.23;15.40;;;;;;;-5.84;79.98;103281.00;5088735;28;20024;-60
2024/01/11 07:42:19;;;;;;;30.70;14.97;;;;;;;-5.93;80.02;103270.25;5092290;28;20460;-60
2024/01/11 07:44:44;;;;;;;38.13;17.80;;;;;;;-5.84;80.70;103281.00;5091999;28;20429;-60
2024/01/11 07:47:10;;;;;;;32.80;18.23;;;;;;;-5.79;81.91;103274.31;5093791;28;20108;-60
2024/01/11 07:49:35;;;;;;;33.37;15.87;;;;;;;-5.73;81.84;103277.16;5092989;28;20027;-60
2024/01/11 07:52:00;;;;;;;40.80;17.20;;;;;;;-5.79;81.66;103243.22;5091631;28;20042;-60
2024/01/11 07:54:28;;;;;;;29.30;15.50;;;;;;;-5.65;82.07;103269.69;5092772;28;20039;-60
2024/01/11 07:56:56;;;;;;;26.67;16.17;;;;;;;-5.68;81.95;103277.34;5092630;28;20038;-60
2024/01/11 07:59:24;;;;;;;42.87;16.03;;;;;;;-5.63;81.78;103278.44;5093444;28;20137;-60
2024/01/11 08:01:53;;;;;;;32.10;15.33;;;;;;;-5.65;81.43;103280.06;5093597;28;20020;-60
2024/01/11 08:04:18;;;;;;;33.03;15.50;;;;;;;-5.65;81.73;103275.75;5092238;28;20028;-60
2024/01/11 08:06:44;;;;;;;29.17;16.53;;;;;;;-5.54;81.67;103292.66;5090325;28;20384;-60
2024/01/11 08:09:10;;;;;;;33.17;16.00;;;;;;;-5.48;82.04;103284.25;5090210;28;20028;-60
2024/01/11 08:11:37;;;;;;;31.83;15.50;;;;;;;-5.43;82.38;103276.69;5090276;28;20462;-60
2024/01/11 08:14:05;;;;;;;30.53;16.67;;;;;;;-5.48;81.97;103269.59;5092838;28;20441;-60
2024/01/11 08:16:30;;;;;;;27.17;16.17;;;;;;;-5.39;81.98;103276.88;5074425;28;20526;-60
2024/01/11 08:18:56;;;;;;;23.07;14.27;;;;;;;-5.44;81.38;103252.47;5091334;28;20103;-60
2024/01/11 08:21:21;;;;;;;26.07;15.37;;;;;;;-5.43;81.61;103253.34;5092900;28;20031;-60
2024/01/11 08:23:49;;;;;;;28.30;14.97;;;;;;;-5.45;81.98;103244.63;5093091;28;20099;-60
2024/01/11 08:26:15;;;;;;;26.00;14.57;;;;;;;-5.47;81.53;103244.56;5091055;28;20577;-60
2024/01/11 08:28:41;;;;;;;23.50;14.33;;;;;;;-5.44;81.50;103246.38;5092118;28;20099;-60
2024/01/11 08:31:07;;;;;;;24.63;16.17;;;;;;;-5.43;81.73;103248.19;5090668;28;20069;-60
2024/01/11 08:33:32;;;;;;;20.83;14.53;;;;;;;-5.40;81.91;103253.50;5089525;28;20020;-60
2024/01/11 08:35:58;;;;;;;28.57;15.50;;;;;;;-5.39;81.69;103258.72;5090010;28;20020;-60
2024/01/11 08:38:24;;;;;;;27.33;15.97;;;;;;;-5.40;81.95;103253.50;5091928;28;20510;-60
2024/01/11 08:40:50;;;;;;;30.23;16.23;;;;;;;-5.43;82.24;103253.34;5091660;28;20024;-60
2024/01/11 08:43:15;;;;;;;31.30;14.97;;;;;;;-5.32;82.44;103270.25;5092309;28;20118;-60
2024/01/11 08:45:40;;;;;;;34.50;17.53;;;;;;;-5.30;82.95;103271.19;5092482;28;20054;-60
2024/01/11 08:48:06;;;;;;;35.57;17.67;;;;;;;-5.27;83.45;103258.34;5092456;28;20103;-60
2024/01/11 08:50:32;;;;;;;32.30;16.37;;;;;;;-5.15;82.91;103264.03;5092803;28;20020;-60
2024/01/11 08:52:58;;;;;;;33.83;15.50;;;;;;;-5.20;82.49;103244.81;5090741;28;20154;-60
2024/01/11 08:55:23;;;;;;;30.37;17.37;;;;;;;-5.09;83.38;103265.97;5090521;28;20024;-60
2024/01/11 08:57:51;;;;;;;29.83;15.93;;;;;;;-5.03;83.08;103266.22;5091890;28;20039;-60
2024/01/11 09:00:17;;;;;;;28.67;14.77;;;;;;;-4.98;83.50;103280.28;5090412;28;20024;-60
2024/01/11 09:02:44;;;;;;;33.77;17.93;;;;;;;-5.04;83.53;103265.34;5091657;28;20112;-60
2024/01/11 09:05:14;;;;;;;24.23;15.43;;;;;;;-4.87;83.73;103291.09;5091274;28;20024;-59
2024/01/11 09:07:39;;;;;;;34.00;17.00;;;;;;;-4.82;83.69;103298.25;5092809;28;20042;-60
2024/01/11 09:10:08;;;;;;;25.30;16.47;;;;;;;-4.81;83.17;103284.44;5094074;28;20028;-60
2024/01/11 09:12:34;;;;;;;35.67;17.00;;;;;;;-4.71;83.42;103290.88;5091546;28;20111;-60
2024/01/11 09:14:59;;;;;;;32.03;18.07;;;;;;;-4.60;83.29;103299.09;5091479;28;20043;-60
2024/01/11 09:17:24;;;;;;;29.27;17.63;;;;;;;-4.63;83.01;103291.19;5092641;28;20082;-60
2024/01/11 09:19:51;;;;;;;33.10;17.77;;;;;;;-4.61;83.08;103284.34;5092675;28;20024;-60
2024/01/11 09:22:16;;;;;;;27.77;16.60;;;;;;;-4.49;82.92;103308.19;5090845;28;20528;-60
2024/01/11 09:24:41;;;;;;;30.30;16.53;;;;;;;-4.43;83.14;103307.53;5090542;28;20053;-60
2024/01/11 09:27:07;;;;;;;29.30;17.37;;;;;;;-4.41;82.65;103292.88;5070989;28;20121;-60
2024/01/11 09:29:35;;;;;;;25.77;16.30;;;;;;;-4.30;82.51;103311.47;5086264;28;20032;-60
2024/01/11 09:32:00;;;;;;;27.10;16.50;;;;;;;-4.32;82.73;103289.75;5091679;28;20432;-60
2024/01/11 09:34:31;;;;;;;36.27;18.67;;;;;;;-4.18;82.32;103306.75;5090232;28;20024;-60
2024/01/11 09:36:58;;;;;;;34.53;17.70;;;;;;;-4.12;82.15;103313.06;5091954;28;20059;-60
2024/01/11 09:39:25;;;;;;;24.87;16.70;;;;;;;-4.12;82.37;103320.88;5090892;28;20106;-60
2024/01/11 09:42:04;;;;;;;28.93;16.93;;;;;;;-4.01;82.11;103326.44;5090138;28;20016;-60
2024/01/11 09:44:30;;;;;;;29.03;16.00;;;;;;;-3.94;81.96;103333.66;5091884;28;20105;-60
2024/01/11 09:46:58;;;;;;;30.50;16.33;;;;;;;-3.85;82.02;103338.31;5091702;28;20059;-60
2024/01/11 09:49:23;;;;;;;31.10;17.50;;;;;;;-3.78;81.88;103342.00;5091709;28;20024;-60
2024/01/11 09:51:49;;;;;;;32.87;16.80;;;;;;;-3.70;81.53;103338.88;5085477;28;20547;-60
2024/01/11 09:54:15;;;;;;;29.53;17.53;;;;;;;-3.69;81.14;103338.03;5091117;28;20030;-60
2024/01/11 09:56:43;;;;;;;37.23;18.70;;;;;;;-3.56;81.18;103352.38;5095821;28;20032;-60
2024/01/11 09:59:11;;;;;;;33.00;16.37;;;;;;;-3.43;81.31;103351.97;5087811;28;20107;-60
2024/01/11 10:01:37;;;;;;;36.37;19.47;;;;;;;-3.30;80.72;103344.56;5089781;28;20032;-60
2024/01/11 10:04:03;;;;;;;33.20;18.13;;;;;;;-3.14;80.28;103349.47;5089153;28;20024;-60
2024/01/11 10:06:33;;;;;;;27.80;17.07;;;;;;;-2.89;79.52;103358.97;5089269;28;20036;-60
2024/01/11 10:08:58;;;;;;;35.03;18.50;;;;;;;-2.72;79.17;103338.72;5088005;28;20030;-60
2024/01/11 10:11:24;;;;;;;30.73;17.87;;;;;;;-2.52;77.91;103340.22;5088498;28;20024;-59
2024/01/11 10:13:56;;;;;;;34.33;17.73;;;;;;;-2.23;77.13;103341.97;5090887;28;20391;-60
2024/01/11 10:16:21;;;;;;;28.07;17.03;;;;;;;-2.03;76.20;103352.97;5090641;28;20019;-60
2024/01/11 10:18:47;;;;;;;37.40;17.70;;;;;;;-1.80;75.33;103348.44;5090803;28;20081;-60
2024/01/11 10:21:12;;;;;;;27.30;16.03;;;;;;;-1.61;73.79;103351.59;5089967;28;20505;-60
2024/01/11 10:23:38;;;;;;;31.07;16.97;;;;;;;-1.56;72.18;103338.66;5089000;28;20020;-60
2024/01/11 10:26:04;;;;;;;30.37;18.00;;;;;;;-1.38;71.89;103357.47;5090399;28;20031;-60
2024/01/11 10:28:30;;;;;;;32.03;18.27;;;;;;;-1.36;71.21;103354.88;5088097;28;20021;-60
2024/01/11 10:30:57;;;;;;;29.33;17.87;;;;;;;-1.43;70.80;103358.16;5088205;28;20035;-60
2024/01/11 10:33:22;;;;;;;35.30;18.10;;;;;;;-1.51;71.39;103351.84;5088340;28;20039;-60
2024/01/11 10:35:51;;;;;;;31.73;17.83;;;;;;;-1.29;70.25;103356.81;5089411;28;20024;-60
2024/01/11 10:38:17;;;;;;;33.93;17.37;;;;;;;-1.03;70.47;103346.16;5091145;28;20016;-60
2024/01/11 10:40:44;;;;;;;33.90;17.93;;;;;;;-0.58;70.35;103353.38;5088768;28;20060;-60
2024/01/11 10:43:15;;;;;;;36.80;18.27;;;;;;;-0.07;68.26;103348.41;5090612;28;20024;-60
2024/01/11 10:45:43;;;;;;;38.13;18.10;;;;;;;0.56;65.57;103367.13;5089687;28;20487;-60
2024/01/11 10:48:15;;;;;;;32.20;16.27;;;;;;;0.83;63.89;103325.75;5091038;28;20039;-60
2024/01/11 10:50:45;;;;;;;28.70;15.50;;;;;;;1.41;61.81;103353.75;5088193;28;20020;-60
2024/01/11 10:53:36;;;;;;;32.33;17.05;;;;;;;1.77;61.03;103356.06;5088222;28;20031;-60
2024/01/11 10:56:06;;;;;;;29.88;15.77;;;;;;;2.22;58.28;103354.88;5086621;28;20031;-60
2024/01/11 10:58:33;;;;;;;32.17;16.98;;;;;;;2.64;57.99;103346.59;5085317;28;20055;-60
2024/01/11 11:01:00;;;;;;;32.53;16.42;;;;;;;2.99;55.75;103332.91;5085822;28;20024;-61
2024/01/11 11:03:26;;;;;;;29.05;16.13;;;;;;;3.44;55.30;103349.91;5091972;28;20034;-61
2024/01/11 11:06:00;;;;;;;26.80;16.50;;;;;;;3.79;54.30;103346.63;5087956;28;20039;-61